createdAt,value
2023-03-27T00:01:36.782Z,6.80
2023-03-27T00:04:18.995Z,7.70
2023-03-27T00:06:55.013Z,7.90
2023-03-27T00:09:46.185Z,4.70
2023-03-27T00:12:18.530Z,7.30
2023-03-27T00:14:49.089Z,7.60
2023-03-27T00:17:22.326Z,7.60
2023-03-27T00:19:53.786Z,8.20
2023-03-27T00:22:30.049Z,7.80
2023-03-27T00:25:01.535Z,8.40
2023-03-27T00:27:46.372Z,9.00
2023-03-27T00:30:18.871Z,6.70
2023-03-27T00:32:58.682Z,8.20
2023-03-27T00:35:32.869Z,6.80
2023-03-27T00:38:18.398Z,11.60
2023-03-27T00:41:00.082Z,9.40
2023-03-27T00:43:55.049Z,9.30
2023-03-27T00:46:47.160Z,12.10
2023-03-27T00:49:22.078Z,11.40
2023-03-27T00:52:08.668Z,12.40
2023-03-27T00:54:40.694Z,15.00
2023-03-27T00:57:22.232Z,9.40
2023-03-27T01:00:17.160Z,15.80
2023-03-27T01:03:10.043Z,11.70
2023-03-27T01:05:43.292Z,16.80
2023-03-27T01:08:18.390Z,13.70
2023-03-27T01:11:05.153Z,9.40
2023-03-27T01:13:51.934Z,14.80
2023-03-27T01:16:30.745Z,14.80
2023-03-27T01:19:21.583Z,13.90
2023-03-27T01:22:25.207Z,15.90
2023-03-27T01:28:43.463Z,15.90
2023-03-27T01:31:35.818Z,15.80
2023-03-27T01:34:33.257Z,12.70
2023-03-27T01:37:39.010Z,12.50
2023-03-27T01:40:22.804Z,8.70
2023-03-27T01:43:00.949Z,12.60
2023-03-27T01:45:37.739Z,13.40
2023-03-27T01:48:18.108Z,12.70
2023-03-27T01:50:55.045Z,12.50
2023-03-27T01:53:31.173Z,18.30
2023-03-27T01:56:07.170Z,18.50
2023-03-27T01:58:46.139Z,12.20
2023-03-27T02:01:22.382Z,12.60
2023-03-27T02:03:57.177Z,15.70
2023-03-27T02:07:00.736Z,12.40
2023-03-27T02:09:43.476Z,15.20
2023-03-27T02:12:19.769Z,10.50
2023-03-27T02:15:23.982Z,11.00
2023-03-27T02:18:05.409Z,14.20
2023-03-27T02:20:41.363Z,14.80
2023-03-27T02:23:23.645Z,12.80
2023-03-27T02:26:03.716Z,12.90
2023-03-27T02:29:07.934Z,10.50
2023-03-27T02:31:52.555Z,12.00
2023-03-27T02:35:04.191Z,9.50
2023-03-27T02:38:08.479Z,5.20
2023-03-27T02:40:55.548Z,10.40
2023-03-27T02:43:56.222Z,9.60
2023-03-27T02:47:03.375Z,8.40
2023-03-27T02:49:41.217Z,15.10
2023-03-27T02:52:26.130Z,10.40
2023-03-27T02:55:11.897Z,10.00
2023-03-27T02:57:51.966Z,11.10
2023-03-27T03:00:48.913Z,10.20
2023-03-27T03:03:53.909Z,12.90
2023-03-27T03:06:44.415Z,7.50
2023-03-27T03:09:15.931Z,12.30
2023-03-27T03:11:54.317Z,12.50
2023-03-27T03:14:46.056Z,9.40
2023-03-27T03:17:19.257Z,7.70
2023-03-27T03:20:13.089Z,7.50
2023-03-27T03:22:54.059Z,8.00
2023-03-27T03:25:44.862Z,8.00
2023-03-27T03:28:35.985Z,9.20
2023-03-27T03:31:26.906Z,13.60
2023-03-27T03:34:19.389Z,7.20
2023-03-27T03:37:03.232Z,11.60
2023-03-27T03:39:54.253Z,12.20
2023-03-27T03:47:39.953Z,8.30
2023-03-27T03:50:20.007Z,12.90
2023-03-27T03:52:50.917Z,10.30
2023-03-27T03:55:21.387Z,10.30
2023-03-27T03:58:12.203Z,8.30
2023-03-27T04:00:43.646Z,6.50
2023-03-27T04:03:34.308Z,10.90
2023-03-27T04:06:07.764Z,13.70
2023-03-27T04:08:42.323Z,11.70
2023-03-27T04:11:34.147Z,14.10
2023-03-27T04:14:19.499Z,10.10
2023-03-27T04:16:52.814Z,11.10
2023-03-27T04:19:28.272Z,7.50
2023-03-27T04:22:03.827Z,14.20
2023-03-27T04:24:37.380Z,10.30
2023-03-27T04:30:25.526Z,10.00
2023-03-27T04:33:23.051Z,9.90
2023-03-27T04:36:26.652Z,10.20
2023-03-27T04:39:20.103Z,10.90
2023-03-27T04:41:59.887Z,5.70
2023-03-27T04:44:36.887Z,11.50
2023-03-27T04:47:09.159Z,11.90
2023-03-27T04:50:01.161Z,7.80
2023-03-27T04:52:33.515Z,7.70
2023-03-27T04:55:15.157Z,7.10
2023-03-27T04:58:06.510Z,11.00
2023-03-27T05:00:40.472Z,14.00
2023-03-27T05:03:28.945Z,10.80
2023-03-27T05:06:19.817Z,10.40
2023-03-27T05:08:52.928Z,7.20
2023-03-27T05:11:28.933Z,8.30
2023-03-27T05:14:21.511Z,11.50
2023-03-27T05:17:13.110Z,10.40
2023-03-27T05:19:45.346Z,6.60
2023-03-27T05:22:26.346Z,10.50
2023-03-27T05:25:16.282Z,8.90
2023-03-27T05:28:01.079Z,10.80
2023-03-27T05:30:55.464Z,12.00
2023-03-27T05:33:26.782Z,8.70
2023-03-27T05:36:03.233Z,7.70
2023-03-27T05:38:34.087Z,10.80
2023-03-27T05:41:30.856Z,7.20
2023-03-27T05:44:21.864Z,5.40
2023-03-27T05:47:14.630Z,9.50
2023-03-27T05:49:48.199Z,8.20
2023-03-27T05:52:32.723Z,7.50
2023-03-27T05:57:33.146Z,6.70
2023-03-27T06:00:25.977Z,8.00
2023-03-27T06:03:01.990Z,9.10
2023-03-27T06:05:55.947Z,10.50
2023-03-27T06:08:26.921Z,11.90
2023-03-27T06:11:18.395Z,13.40
2023-03-27T06:14:09.318Z,4.00
2023-03-27T06:17:02.907Z,11.10
2023-03-27T06:19:57.196Z,9.80
2023-03-27T06:22:35.219Z,8.20
2023-03-27T06:25:09.358Z,11.00
2023-03-27T06:28:00.696Z,7.30
2023-03-27T06:30:51.780Z,7.10
2023-03-27T06:33:46.764Z,5.70
2023-03-27T06:36:55.794Z,10.60
2023-03-27T06:39:31.031Z,8.60
2023-03-27T06:42:21.912Z,11.10
2023-03-27T06:45:15.866Z,12.70
2023-03-27T06:48:17.880Z,8.30
2023-03-27T06:51:12.689Z,13.50
2023-03-27T06:53:43.552Z,8.20
2023-03-27T06:56:34.612Z,10.70
2023-03-27T06:59:25.793Z,7.50
2023-03-27T07:02:16.766Z,10.70
2023-03-27T07:05:17.404Z,12.00
2023-03-27T07:08:21.662Z,8.70
2023-03-27T07:11:10.623Z,9.00
2023-03-27T07:13:46.203Z,7.40
2023-03-27T07:16:34.320Z,9.30
2023-03-27T07:19:16.897Z,9.00
2023-03-27T07:22:22.760Z,4.70
2023-03-27T07:25:08.196Z,7.30
2023-03-27T07:27:49.986Z,14.30
2023-03-27T07:30:22.839Z,8.70
2023-03-27T07:33:05.791Z,8.90
2023-03-27T07:35:49.334Z,10.70
2023-03-27T07:38:52.561Z,11.80
2023-03-27T07:41:49.539Z,15.30
2023-03-27T07:44:43.944Z,12.40
2023-03-27T07:47:26.146Z,10.20
2023-03-27T07:50:01.756Z,8.40
2023-03-27T07:52:35.187Z,9.90
2023-03-27T07:55:14.242Z,11.60
2023-03-27T07:58:00.541Z,8.40
2023-03-27T08:00:35.547Z,13.30
2023-03-27T08:03:28.422Z,9.20
2023-03-27T08:06:06.287Z,7.70
2023-03-27T08:08:38.008Z,14.80
2023-03-27T08:11:23.016Z,12.40
2023-03-27T08:13:59.800Z,10.60
2023-03-27T08:16:50.867Z,9.00
2023-03-27T08:19:39.022Z,13.30
2023-03-27T08:22:14.330Z,10.90
2023-03-27T08:25:06.873Z,8.60
2023-03-27T08:27:39.620Z,12.10
2023-03-27T08:30:23.896Z,15.30
2023-03-27T08:32:57.117Z,10.40
2023-03-27T08:35:28.668Z,9.00
2023-03-27T08:38:16.637Z,10.40
2023-03-27T08:41:09.232Z,7.10
2023-03-27T08:44:03.942Z,11.10
2023-03-27T08:46:38.603Z,9.10
2023-03-27T08:49:17.984Z,12.50
2023-03-27T08:52:15.764Z,10.10
2023-03-27T08:54:53.640Z,8.10
2023-03-27T08:57:32.024Z,10.70
2023-03-27T09:00:16.955Z,13.90
2023-03-27T09:02:53.542Z,13.80
2023-03-27T09:05:28.595Z,10.80
2023-03-27T09:08:07.567Z,8.20
2023-03-27T09:10:44.762Z,10.60
2023-03-27T09:13:36.443Z,11.10
2023-03-27T09:16:32.521Z,5.30
2023-03-27T09:19:16.389Z,8.70
2023-03-27T09:21:50.545Z,10.00
2023-03-27T09:24:34.268Z,6.20
2023-03-27T09:27:34.724Z,7.80
2023-03-27T09:30:44.053Z,7.60
2023-03-27T09:33:19.939Z,9.80
2023-03-27T09:35:53.435Z,11.60
2023-03-27T09:38:36.369Z,7.80
2023-03-27T09:41:14.111Z,7.30
2023-03-27T09:43:52.723Z,8.80
2023-03-27T09:46:26.465Z,10.90
2023-03-27T09:49:09.001Z,6.20
2023-03-27T09:51:46.357Z,6.10
2023-03-27T09:54:56.793Z,9.50
2023-03-27T09:57:40.547Z,7.10
2023-03-27T10:00:31.316Z,9.30
2023-03-27T10:03:09.035Z,7.00
2023-03-27T10:09:30.993Z,6.90
2023-03-27T10:12:12.146Z,6.80
2023-03-27T10:15:06.023Z,8.80
2023-03-27T10:17:51.502Z,7.50
2023-03-27T10:20:25.662Z,10.00
2023-03-27T10:25:34.452Z,20.80
2023-03-27T10:28:45.443Z,16.70
2023-03-27T10:31:31.882Z,14.10
2023-03-27T10:34:37.864Z,12.00
2023-03-27T10:37:34.405Z,10.20
2023-03-27T10:40:43.610Z,5.30
2023-03-27T10:43:40.282Z,8.70
2023-03-27T10:46:33.425Z,5.70
2023-03-27T10:49:25.622Z,4.80
2023-03-27T10:52:04.397Z,7.20
2023-03-27T10:54:53.332Z,4.20
2023-03-27T10:57:27.905Z,7.20
2023-03-27T11:00:07.319Z,9.60
2023-03-27T11:02:52.700Z,5.90
2023-03-27T11:05:30.418Z,6.80
2023-03-27T11:08:13.162Z,6.30
2023-03-27T11:10:58.697Z,8.40
2023-03-27T11:13:35.094Z,6.30
2023-03-27T11:16:17.998Z,8.90
2023-03-27T11:19:38.419Z,7.30
2023-03-27T11:22:30.772Z,5.20
2023-03-27T11:25:07.709Z,7.30
2023-03-27T11:27:51.117Z,9.30
2023-03-27T11:30:33.808Z,7.40
2023-03-27T11:33:34.732Z,6.60
2023-03-27T11:36:37.862Z,8.80
2023-03-27T11:39:39.392Z,7.50
2023-03-27T11:42:19.603Z,6.80
2023-03-27T11:44:52.510Z,7.20
2023-03-27T11:48:06.974Z,9.10
2023-03-27T11:51:06.978Z,6.50
2023-03-27T11:56:49.757Z,5.70
2023-03-27T11:59:55.228Z,7.00
2023-03-27T12:02:50.881Z,5.10
2023-03-27T12:05:32.056Z,6.60
2023-03-27T12:08:13.504Z,8.90
2023-03-27T12:10:58.375Z,4.10
2023-03-27T12:14:23.880Z,6.60
2023-03-27T12:17:27.352Z,4.40
2023-03-27T12:20:21.857Z,4.00
2023-03-27T12:23:09.643Z,6.20
2023-03-27T12:26:17.907Z,6.50
2023-03-27T12:29:23.549Z,5.90
2023-03-27T12:32:17.922Z,3.50
2023-03-27T12:34:56.655Z,6.30
2023-03-27T12:37:38.681Z,6.20
2023-03-27T12:40:29.376Z,5.70
2023-03-27T12:43:26.849Z,4.80
2023-03-27T12:46:17.592Z,5.20
2023-03-27T12:48:58.822Z,5.20
2023-03-27T12:51:47.713Z,5.50
2023-03-27T12:54:28.951Z,7.50
2023-03-27T12:57:06.795Z,6.10
2023-03-27T12:59:57.879Z,7.30
2023-03-27T13:03:04.689Z,4.40
2023-03-27T13:05:57.341Z,5.30
2023-03-27T13:09:00.923Z,4.90
2023-03-27T13:12:02.877Z,7.50
2023-03-27T13:15:00.616Z,8.20
2023-03-27T13:17:48.017Z,4.70
2023-03-27T13:20:34.906Z,5.70
2023-03-27T13:23:28.964Z,5.20
2023-03-27T13:26:19.142Z,6.10
2023-03-27T13:28:51.372Z,6.70
2023-03-27T13:32:03.842Z,6.80
2023-03-27T13:35:05.255Z,7.40
2023-03-27T13:37:59.367Z,6.00
2023-03-27T13:40:40.710Z,6.20
2023-03-27T13:43:28.605Z,6.90
2023-03-27T13:46:19.287Z,5.90
2023-03-27T13:49:40.166Z,8.40
2023-03-27T13:52:42.888Z,10.10
2023-03-27T13:55:39.598Z,8.80
2023-03-27T13:58:52.986Z,8.50
2023-03-27T14:01:45.264Z,10.50
2023-03-27T14:04:45.679Z,8.10
2023-03-27T14:07:44.743Z,17.60
2023-03-27T14:10:41.390Z,11.20
2023-03-27T14:13:27.964Z,13.00
2023-03-27T14:16:30.131Z,4.90
2023-03-27T14:19:44.164Z,3.80
2023-03-27T14:22:26.546Z,6.80
2023-03-27T14:25:02.974Z,6.90
2023-03-27T14:27:57.346Z,5.70
2023-03-27T14:30:47.907Z,8.00
2023-03-27T14:33:39.193Z,9.30
2023-03-27T14:36:17.074Z,7.00
2023-03-27T14:38:48.568Z,4.80
2023-03-27T14:41:31.932Z,4.00
2023-03-27T14:44:05.871Z,8.60
2023-03-27T14:46:48.219Z,4.50
2023-03-27T14:49:24.657Z,6.20
2023-03-27T14:52:06.251Z,4.60
2023-03-27T14:54:58.121Z,7.50
2023-03-27T14:57:33.047Z,4.80
2023-03-27T15:00:16.531Z,7.50
2023-03-27T15:02:52.339Z,6.50
2023-03-27T15:05:24.751Z,3.00
2023-03-27T15:08:02.741Z,8.40
2023-03-27T15:11:11.127Z,3.40
2023-03-27T15:13:51.761Z,6.00
2023-03-27T15:16:35.804Z,7.00
2023-03-27T15:19:12.863Z,6.70
2023-03-27T15:21:51.220Z,4.70
2023-03-27T15:24:30.474Z,5.20
2023-03-27T15:27:02.906Z,5.20
2023-03-27T15:29:40.859Z,5.00
2023-03-27T15:32:18.060Z,5.90
2023-03-27T15:34:55.784Z,5.50
2023-03-27T15:37:29.040Z,4.40
2023-03-27T15:40:13.569Z,6.20
2023-03-27T15:43:02.314Z,5.60
2023-03-27T15:45:40.998Z,6.70
2023-03-27T15:48:22.045Z,6.10
2023-03-27T15:51:02.062Z,4.10
2023-03-27T15:53:38.381Z,6.50
2023-03-27T15:56:22.611Z,6.70
2023-03-27T15:58:58.631Z,4.60
2023-03-27T16:01:33.727Z,7.10
2023-03-27T16:04:13.962Z,4.00
2023-03-27T16:06:47.896Z,3.60
2023-03-27T16:09:27.104Z,4.90
2023-03-27T16:11:59.649Z,6.60
2023-03-27T16:14:44.666Z,5.10
2023-03-27T16:17:25.231Z,4.60
2023-03-27T16:20:40.309Z,5.90
2023-03-27T16:23:11.209Z,4.60
2023-03-27T16:25:42.362Z,6.20
2023-03-27T16:28:18.737Z,7.20
2023-03-27T16:30:50.057Z,5.60
2023-03-27T16:33:23.614Z,5.70
2023-03-27T16:36:16.169Z,6.40
2023-03-27T16:38:49.842Z,6.10
2023-03-27T16:41:23.349Z,5.90
2023-03-27T16:43:56.768Z,6.20
2023-03-27T16:46:29.896Z,5.70
2023-03-27T16:49:03.897Z,8.00
2023-03-27T16:51:44.861Z,8.50
2023-03-27T16:54:26.832Z,11.30
2023-03-27T16:56:57.882Z,8.50
2023-03-27T16:59:48.809Z,6.90
2023-03-27T17:02:19.648Z,5.50
2023-03-27T17:05:00.409Z,7.80
2023-03-27T17:07:51.420Z,8.40
2023-03-27T17:10:22.383Z,7.40
2023-03-27T17:13:06.856Z,6.20
2023-03-27T17:15:41.282Z,6.10
2023-03-27T17:18:12.059Z,5.90
2023-03-27T17:20:42.968Z,4.10
2023-03-27T17:23:23.741Z,5.20
2023-03-27T17:26:00.143Z,5.80
2023-03-27T17:28:31.717Z,5.90
2023-03-27T17:31:12.690Z,6.20
2023-03-27T17:33:56.664Z,8.60
2023-03-27T17:36:43.227Z,4.50
2023-03-27T17:39:39.242Z,5.00
2023-03-27T17:42:13.036Z,7.10
2023-03-27T17:45:04.287Z,5.10
2023-03-27T17:47:55.123Z,5.50
2023-03-27T17:50:25.852Z,5.40
2023-03-27T17:52:56.655Z,5.50
2023-03-27T17:55:27.586Z,4.00
2023-03-27T17:58:09.258Z,2.80
2023-03-27T18:00:52.337Z,2.00
2023-03-27T18:03:46.273Z,4.00
2023-03-27T18:06:27.313Z,2.40
2023-03-27T18:09:18.166Z,2.90
2023-03-27T18:11:52.311Z,2.10
2023-03-27T18:14:23.289Z,4.00
2023-03-27T18:16:56.123Z,3.80
2023-03-27T18:19:26.933Z,2.60
2023-03-27T18:22:00.330Z,4.10
2023-03-27T18:24:40.502Z,4.70
2023-03-27T18:30:14.502Z,4.60
2023-03-27T18:33:06.022Z,4.00
2023-03-27T18:35:38.395Z,5.10
2023-03-27T18:38:30.477Z,6.50
2023-03-27T18:41:12.748Z,5.00
2023-03-27T18:46:43.360Z,7.20
2023-03-27T18:49:34.293Z,4.00
2023-03-27T18:52:25.100Z,5.70
2023-03-27T18:55:16.096Z,7.40
2023-03-27T18:57:56.312Z,4.30
2023-03-27T19:00:47.418Z,5.60
2023-03-27T19:03:39.294Z,7.10
2023-03-27T19:06:23.860Z,7.10
2023-03-27T19:09:14.977Z,8.80
2023-03-27T19:12:06.446Z,7.90
2023-03-27T19:15:19.907Z,9.00
2023-03-27T19:18:30.630Z,10.30
2023-03-27T19:21:21.599Z,8.50
2023-03-27T19:24:12.560Z,7.70
2023-03-27T19:26:58.868Z,10.40
2023-03-27T19:29:49.867Z,7.30
2023-03-27T19:32:40.959Z,8.30
2023-03-27T19:35:32.024Z,8.10
2023-03-27T19:38:11.739Z,9.40
2023-03-27T19:41:04.563Z,8.00
2023-03-27T19:43:46.391Z,9.20
2023-03-27T19:46:37.748Z,11.40
2023-03-27T19:49:28.642Z,10.30
2023-03-27T19:52:20.344Z,7.30
2023-03-27T19:54:51.167Z,7.90
2023-03-27T19:57:22.189Z,7.20
2023-03-27T20:00:15.721Z,7.10
2023-03-27T20:03:10.492Z,7.30
2023-03-27T20:06:07.448Z,5.30
2023-03-27T20:08:46.620Z,6.70
2023-03-27T20:11:30.918Z,8.00
2023-03-27T20:14:21.987Z,8.40
2023-03-27T20:17:12.260Z,4.80
2023-03-27T20:19:55.741Z,6.80
2023-03-27T20:22:29.768Z,8.40
2023-03-27T20:25:13.826Z,8.20
2023-03-27T20:27:47.933Z,6.40
2023-03-27T20:30:40.494Z,7.40
2023-03-27T20:33:31.424Z,10.40
2023-03-27T20:36:23.356Z,9.30
2023-03-27T20:38:56.533Z,9.00
2023-03-27T20:41:39.151Z,7.40
2023-03-27T20:44:16.413Z,9.40
2023-03-27T20:47:11.282Z,7.90
2023-03-27T20:49:44.000Z,7.10
2023-03-27T20:52:34.834Z,4.70
2023-03-27T20:55:26.534Z,6.80
2023-03-27T20:58:06.519Z,5.30
2023-03-27T21:00:39.875Z,9.10
2023-03-27T21:03:15.985Z,6.60
2023-03-27T21:05:49.788Z,8.60
2023-03-27T21:08:32.629Z,7.30
2023-03-27T21:11:23.444Z,6.80
2023-03-27T21:14:04.912Z,9.10
2023-03-27T21:19:25.750Z,8.70
2023-03-27T21:21:59.337Z,7.30
2023-03-27T21:24:50.352Z,10.70
2023-03-27T21:27:31.664Z,6.20
2023-03-27T21:30:23.599Z,7.00
2023-03-27T21:33:34.439Z,7.00
2023-03-27T21:36:28.012Z,7.80
2023-03-27T21:39:03.264Z,8.10
2023-03-27T21:44:33.914Z,7.90
2023-03-27T21:47:10.230Z,6.50
2023-03-27T21:49:48.490Z,10.80
2023-03-27T21:52:39.442Z,7.40
2023-03-27T21:55:13.472Z,7.20
2023-03-27T21:58:04.820Z,8.60
2023-03-27T22:03:16.502Z,9.70
2023-03-27T22:08:59.145Z,8.00
2023-03-27T22:11:50.463Z,8.30
2023-03-27T22:14:21.163Z,8.60
2023-03-27T22:17:06.297Z,7.00
2023-03-27T22:19:57.710Z,8.80
2023-03-27T22:22:40.164Z,12.10
2023-03-27T22:25:31.021Z,9.80
2023-03-27T22:28:21.890Z,10.00
2023-03-27T22:31:11.682Z,8.90
2023-03-27T22:33:46.423Z,8.50
2023-03-27T22:36:20.568Z,8.20
2023-03-27T22:39:10.240Z,12.20
2023-03-27T22:42:01.134Z,9.20
2023-03-27T22:44:43.065Z,8.60
2023-03-27T22:47:33.102Z,8.60
2023-03-27T22:50:14.960Z,8.60
2023-03-27T22:53:05.807Z,8.80
2023-03-27T22:55:52.093Z,9.50
2023-03-27T22:58:23.401Z,9.70
2023-03-27T23:01:09.001Z,10.00
2023-03-27T23:03:59.758Z,10.40
2023-03-27T23:06:50.886Z,10.30
2023-03-27T23:09:41.797Z,11.60
2023-03-27T23:12:17.525Z,9.50
2023-03-27T23:15:10.307Z,10.80
2023-03-27T23:18:01.205Z,9.00
2023-03-27T23:20:44.962Z,9.80
2023-03-27T23:23:38.219Z,9.00
2023-03-27T23:26:19.172Z,10.90
2023-03-27T23:29:10.010Z,9.70
2023-03-27T23:31:54.481Z,7.40
2023-03-27T23:34:38.009Z,5.70
2023-03-27T23:37:31.281Z,9.30
2023-03-27T23:40:22.130Z,7.30
2023-03-27T23:43:01.774Z,10.50
2023-03-27T23:45:52.886Z,10.70
2023-03-27T23:48:35.239Z,7.70
2023-03-27T23:51:10.262Z,6.90
2023-03-27T23:53:49.579Z,5.10
2023-03-27T23:56:40.398Z,9.20
2023-03-27T23:59:11.078Z,7.70
